createdAt,value
2022-08-05T00:01:35.588Z,9.35
2022-08-05T00:04:05.105Z,10.32
2022-08-05T00:06:36.126Z,9.48
2022-08-05T00:09:13.101Z,10.23
2022-08-05T00:11:49.037Z,10.80
2022-08-05T00:14:17.634Z,10.65
2022-08-05T00:16:52.971Z,9.93
2022-08-05T00:19:23.331Z,10.13
2022-08-05T00:21:52.301Z,9.85
2022-08-05T00:24:24.768Z,9.40
2022-08-05T00:26:57.775Z,9.73
2022-08-05T00:29:26.193Z,9.55
2022-08-05T00:32:13.507Z,9.68
2022-08-05T00:35:05.595Z,9.43
2022-08-05T00:37:35.647Z,10.05
2022-08-05T00:40:28.425Z,9.02
2022-08-05T00:43:02.178Z,9.65
2022-08-05T00:45:39.441Z,9.73
2022-08-05T00:48:27.398Z,9.68
2022-08-05T00:50:54.854Z,10.27
2022-08-05T00:54:00.396Z,10.30
2022-08-05T00:56:12.080Z,10.05
2022-08-05T00:58:39.227Z,10.65
2022-08-05T01:01:12.205Z,10.07
2022-08-05T01:03:40.412Z,10.00
2022-08-05T01:06:14.234Z,9.27
2022-08-05T01:08:44.225Z,9.65
2022-08-05T01:11:36.838Z,9.65
2022-08-05T01:14:28.222Z,10.57
2022-08-05T01:17:17.740Z,9.85
2022-08-05T01:20:00.770Z,9.93
2022-08-05T01:23:23.480Z,9.57
2022-08-05T01:26:18.444Z,9.50
2022-08-05T01:29:05.348Z,9.30
2022-08-05T01:31:52.524Z,9.55
2022-08-05T01:34:28.123Z,9.93
2022-08-05T01:37:37.900Z,9.18
2022-08-05T01:40:13.964Z,9.40
2022-08-05T01:42:49.139Z,9.40
2022-08-05T01:45:18.201Z,9.40
2022-08-05T01:47:49.967Z,9.20
2022-08-05T01:50:36.108Z,9.30
2022-08-05T01:53:13.348Z,8.93
2022-08-05T01:55:45.242Z,9.88
2022-08-05T01:58:17.101Z,9.18
2022-08-05T02:00:50.986Z,9.75
2022-08-05T02:03:31.574Z,9.75
2022-08-05T02:06:03.631Z,9.23
2022-08-05T02:08:58.654Z,9.73
2022-08-05T02:11:52.909Z,9.30
2022-08-05T02:14:47.223Z,9.30
2022-08-05T02:18:28.258Z,9.20
2022-08-05T02:20:23.251Z,9.02
2022-08-05T02:23:05.772Z,9.90
2022-08-05T02:25:50.111Z,9.30
2022-08-05T02:28:33.088Z,9.10
2022-08-05T02:31:07.695Z,9.40
2022-08-05T02:33:57.557Z,8.57
2022-08-05T02:36:31.323Z,8.30
2022-08-05T02:39:01.730Z,8.63
2022-08-05T02:41:36.370Z,8.10
2022-08-05T02:44:24.618Z,8.13
2022-08-05T02:46:59.733Z,8.80
2022-08-05T02:49:37.748Z,8.98
2022-08-05T02:52:30.036Z,8.30
2022-08-05T02:55:02.026Z,8.23
2022-08-05T02:58:10.044Z,8.50
2022-08-05T03:00:20.818Z,8.13
2022-08-05T03:02:50.543Z,8.52
2022-08-05T03:05:21.849Z,8.52
2022-08-05T03:08:09.499Z,8.38
2022-08-05T03:10:36.865Z,8.32
2022-08-05T03:13:17.104Z,8.48
2022-08-05T03:15:46.139Z,7.97
2022-08-05T03:18:14.006Z,8.85
2022-08-05T03:20:44.555Z,8.88
2022-08-05T03:23:16.359Z,8.60
2022-08-05T03:26:05.035Z,8.60
2022-08-05T03:28:31.571Z,8.85
2022-08-05T03:31:02.430Z,9.10
2022-08-05T03:33:51.043Z,8.73
2022-08-05T03:36:18.346Z,8.55
2022-08-05T03:38:58.259Z,8.77
2022-08-05T03:41:25.559Z,9.93
2022-08-05T03:44:10.991Z,8.40
2022-08-05T03:46:39.045Z,8.68
2022-08-05T03:49:06.700Z,8.50
2022-08-05T03:52:36.627Z,8.05
2022-08-05T03:55:52.963Z,8.63
2022-08-05T03:57:44.559Z,8.27
2022-08-05T04:00:16.648Z,7.80
2022-08-05T04:02:57.943Z,8.07
2022-08-05T04:05:33.283Z,8.30
2022-08-05T04:08:29.750Z,8.27
2022-08-05T04:13:50.422Z,8.40
2022-08-05T04:16:15.404Z,7.63
2022-08-05T04:18:54.219Z,8.35
2022-08-05T04:22:10.284Z,8.88
2022-08-05T04:24:18.668Z,8.90
2022-08-05T04:26:47.198Z,9.38
2022-08-05T04:29:14.286Z,9.20
2022-08-05T04:31:41.424Z,9.13
2022-08-05T04:34:19.010Z,9.15
2022-08-05T04:36:50.208Z,9.02
2022-08-05T04:39:19.620Z,9.10
2022-08-05T04:41:48.353Z,8.98
2022-08-05T04:44:21.304Z,9.25
2022-08-05T04:46:56.163Z,8.48
2022-08-05T04:49:24.670Z,8.07
2022-08-05T04:52:07.738Z,8.35
2022-08-05T04:54:34.807Z,7.85
2022-08-05T04:57:01.749Z,8.02
2022-08-05T04:59:36.809Z,12.10
2022-08-05T05:02:41.182Z,7.47
2022-08-05T05:04:52.927Z,7.45
2022-08-05T05:07:32.352Z,8.10
2022-08-05T05:10:04.414Z,8.73
2022-08-05T05:12:31.658Z,7.65
2022-08-05T05:14:58.790Z,7.03
2022-08-05T05:17:56.713Z,7.07
2022-08-05T05:20:14.125Z,7.80
2022-08-05T05:22:44.182Z,6.88
2022-08-05T05:25:17.086Z,6.53
2022-08-05T05:27:53.616Z,6.93
2022-08-05T05:30:30.901Z,7.28
2022-08-05T05:33:03.474Z,6.60
2022-08-05T05:35:39.527Z,6.88
2022-08-05T05:38:13.308Z,6.32
2022-08-05T05:40:49.884Z,6.43
2022-08-05T05:43:21.864Z,6.07
2022-08-05T05:45:54.818Z,6.35
2022-08-05T05:48:27.616Z,6.32
2022-08-05T05:53:22.790Z,5.90
2022-08-05T05:55:52.179Z,5.40
2022-08-05T05:58:31.395Z,6.00
2022-08-05T06:01:12.079Z,5.70
2022-08-05T06:04:01.153Z,5.75
2022-08-05T06:06:31.134Z,5.35
2022-08-05T06:09:00.548Z,5.93
2022-08-05T06:11:28.988Z,5.32
2022-08-05T06:13:56.786Z,5.13
2022-08-05T06:16:30.749Z,4.97
2022-08-05T06:19:01.751Z,5.10
2022-08-05T06:21:36.811Z,5.55
2022-08-05T06:24:11.858Z,5.45
2022-08-05T06:26:51.571Z,5.53
2022-08-05T06:29:25.104Z,5.50
2022-08-05T06:32:21.051Z,5.50
2022-08-05T06:34:56.531Z,4.80
2022-08-05T06:37:56.059Z,4.63
2022-08-05T06:40:18.449Z,4.88
2022-08-05T06:42:52.108Z,4.72
2022-08-05T06:45:44.996Z,5.03
2022-08-05T06:48:36.960Z,5.60
2022-08-05T06:50:56.159Z,4.60
2022-08-05T06:53:28.285Z,4.78
2022-08-05T06:56:00.256Z,4.47
2022-08-05T06:58:29.928Z,4.50
2022-08-05T07:01:04.613Z,4.25
2022-08-05T07:03:33.219Z,4.57
2022-08-05T07:06:05.981Z,4.20
2022-08-05T07:08:47.783Z,3.70
2022-08-05T07:11:21.966Z,3.92
2022-08-05T07:14:20.569Z,4.15
2022-08-05T07:18:08.749Z,3.63
2022-08-05T07:20:32.133Z,3.70
2022-08-05T07:22:37.803Z,3.53
2022-08-05T07:25:24.117Z,3.20
2022-08-05T07:27:58.502Z,3.70
2022-08-05T07:30:32.518Z,3.90
2022-08-05T07:33:15.968Z,3.50
2022-08-05T07:36:03.459Z,3.67
2022-08-05T07:38:43.491Z,3.45
2022-08-05T07:42:13.396Z,3.33
2022-08-05T07:44:14.305Z,3.33
2022-08-05T07:46:53.875Z,3.53
2022-08-05T07:49:21.441Z,3.90
2022-08-05T07:51:53.479Z,3.35
2022-08-05T07:54:33.442Z,3.58
2022-08-05T07:57:23.625Z,3.70
2022-08-05T07:59:52.446Z,3.60
2022-08-05T08:02:31.134Z,3.47
2022-08-05T08:05:17.409Z,3.60
2022-08-05T08:07:59.631Z,3.30
2022-08-05T08:10:28.722Z,3.15
2022-08-05T08:12:59.708Z,3.15
2022-08-05T08:16:33.634Z,3.50
2022-08-05T08:18:20.875Z,2.97
2022-08-05T08:21:02.475Z,3.20
2022-08-05T08:24:01.968Z,3.50
2022-08-05T08:26:17.722Z,3.28
2022-08-05T08:29:21.768Z,3.20
2022-08-05T08:31:46.685Z,3.30
2022-08-05T08:34:30.693Z,3.47
2022-08-05T08:37:03.353Z,3.33
2022-08-05T08:39:32.506Z,3.40
2022-08-05T08:42:10.803Z,3.25
2022-08-05T08:45:23.786Z,3.40
2022-08-05T08:48:06.847Z,3.15
2022-08-05T08:51:03.310Z,3.33
2022-08-05T08:53:35.433Z,3.22
2022-08-05T08:56:13.267Z,2.80
2022-08-05T08:58:44.708Z,2.92
2022-08-05T09:01:18.211Z,3.13
2022-08-05T09:03:58.327Z,2.55
2022-08-05T09:06:29.993Z,2.90
2022-08-05T09:09:01.191Z,3.67
2022-08-05T09:11:50.831Z,3.20
2022-08-05T09:14:57.810Z,2.80
2022-08-05T09:17:39.970Z,3.85
2022-08-05T09:20:02.360Z,2.83
2022-08-05T09:23:07.812Z,26.77
2022-08-05T09:26:02.926Z,3.10
2022-08-05T09:28:31.499Z,2.90
2022-08-05T09:31:44.208Z,2.97
2022-08-05T09:34:09.801Z,2.83
2022-08-05T09:36:59.192Z,2.83
2022-08-05T09:39:45.816Z,2.75
2022-08-05T09:42:23.366Z,3.17
2022-08-05T09:44:56.352Z,2.90
2022-08-05T09:47:46.581Z,3.50
2022-08-05T09:50:38.110Z,3.10
2022-08-05T09:53:07.118Z,2.97
2022-08-05T09:55:57.130Z,2.42
2022-08-05T09:58:25.370Z,2.95
2022-08-05T10:01:01.322Z,2.85
2022-08-05T10:03:56.968Z,3.50
2022-08-05T10:06:20.744Z,2.53
2022-08-05T10:08:50.319Z,2.95
2022-08-05T10:11:21.360Z,2.95
2022-08-05T10:13:54.604Z,3.15
2022-08-05T10:16:41.825Z,5.55
2022-08-05T10:19:31.884Z,2.90
2022-08-05T10:22:30.204Z,2.53
2022-08-05T10:24:59.248Z,2.80
2022-08-05T10:28:13.232Z,2.70
2022-08-05T10:31:20.711Z,2.78
2022-08-05T10:33:35.214Z,2.92
2022-08-05T10:36:05.143Z,2.75
2022-08-05T10:38:36.213Z,2.80
2022-08-05T10:41:45.166Z,2.58
2022-08-05T10:44:20.351Z,2.90
2022-08-05T10:46:54.751Z,2.80
2022-08-05T10:49:33.352Z,2.67
2022-08-05T10:52:49.583Z,2.80
2022-08-05T10:55:18.480Z,3.28
2022-08-05T10:57:46.191Z,2.88
2022-08-05T11:00:23.251Z,2.97
2022-08-05T11:03:24.372Z,3.03
2022-08-05T11:06:15.362Z,2.80
2022-08-05T11:09:31.989Z,2.65
2022-08-05T11:12:42.184Z,2.90
2022-08-05T11:15:21.648Z,2.85
2022-08-05T11:18:11.651Z,3.10
2022-08-05T11:20:47.766Z,3.03
2022-08-05T11:24:04.326Z,4.35
2022-08-05T11:26:29.133Z,2.67
2022-08-05T11:29:13.129Z,2.80
2022-08-05T11:31:57.877Z,2.80
2022-08-05T11:34:47.459Z,2.70
2022-08-05T11:38:29.157Z,3.63
2022-08-05T11:41:34.592Z,2.80
2022-08-05T11:44:08.510Z,3.42
2022-08-05T11:46:58.476Z,2.78
2022-08-05T11:49:29.348Z,10.60
2022-08-05T11:52:02.092Z,4.07
2022-08-05T11:54:41.379Z,3.33
2022-08-05T11:57:25.015Z,2.90
2022-08-05T11:59:53.833Z,2.50
2022-08-05T12:02:31.898Z,3.60
2022-08-05T12:05:07.947Z,3.40
2022-08-05T12:08:07.814Z,3.33
2022-08-05T12:10:43.805Z,2.70
2022-08-05T12:13:18.929Z,2.67
2022-08-05T12:16:15.070Z,2.90
2022-08-05T12:18:48.945Z,2.42
2022-08-05T12:21:42.226Z,2.58
2022-08-05T12:24:14.311Z,7.80
2022-08-05T12:26:50.606Z,2.97
2022-08-05T12:29:22.971Z,3.90
2022-08-05T12:32:01.963Z,2.88
2022-08-05T12:34:33.315Z,2.75
2022-08-05T12:37:29.816Z,3.00
2022-08-05T12:40:03.511Z,2.70
2022-08-05T12:42:39.913Z,3.35
2022-08-05T12:45:10.965Z,2.80
2022-08-05T12:47:43.419Z,4.38
2022-08-05T12:50:25.982Z,2.47
2022-08-05T12:53:01.415Z,2.97
2022-08-05T12:55:32.481Z,2.90
2022-08-05T12:58:48.950Z,2.67
2022-08-05T13:02:02.522Z,3.50
2022-08-05T13:03:43.323Z,3.13
2022-08-05T13:06:17.691Z,3.13
2022-08-05T13:08:51.724Z,3.05
2022-08-05T13:11:25.576Z,5.82
2022-08-05T13:14:20.222Z,2.30
2022-08-05T13:16:56.381Z,3.10
2022-08-05T13:19:27.545Z,2.97
2022-08-05T13:22:15.079Z,8.23
2022-08-05T13:25:05.845Z,3.60
2022-08-05T13:27:43.785Z,3.25
2022-08-05T13:30:34.837Z,2.85
2022-08-05T13:33:05.459Z,3.10
2022-08-05T13:35:47.395Z,3.10
2022-08-05T13:38:30.563Z,3.47
2022-08-05T13:41:01.323Z,3.13
2022-08-05T13:43:45.446Z,3.40
2022-08-05T13:46:16.500Z,3.22
2022-08-05T13:49:03.809Z,3.47
2022-08-05T13:51:40.327Z,3.53
2022-08-05T13:54:15.032Z,3.10
2022-08-05T13:56:50.792Z,3.30
2022-08-05T13:59:21.440Z,2.92
2022-08-05T14:02:00.310Z,3.22
2022-08-05T14:04:51.039Z,3.53
2022-08-05T14:07:59.498Z,2.97
2022-08-05T14:10:28.718Z,4.15
2022-08-05T14:12:59.399Z,5.72
2022-08-05T14:16:05.957Z,3.47
2022-08-05T14:18:18.557Z,5.18
2022-08-05T14:20:54.489Z,4.10
2022-08-05T14:23:25.707Z,5.13
2022-08-05T14:25:58.262Z,3.40
2022-08-05T14:28:28.403Z,3.47
2022-08-05T14:31:00.578Z,5.43
2022-08-05T14:36:15.571Z,3.33
2022-08-05T14:38:47.972Z,2.83
2022-08-05T14:41:15.187Z,3.67
2022-08-05T14:44:01.832Z,3.42
2022-08-05T14:46:35.325Z,3.00
2022-08-05T14:49:07.571Z,2.80
2022-08-05T14:51:37.988Z,7.57
2022-08-05T14:54:27.746Z,3.05
2022-08-05T14:56:54.992Z,2.92
2022-08-05T14:59:22.338Z,2.97
2022-08-05T15:01:50.184Z,2.90
2022-08-05T15:04:22.596Z,3.58
2022-08-05T15:06:51.332Z,3.40
2022-08-05T15:09:51.790Z,3.20
2022-08-05T15:12:11.718Z,3.05
2022-08-05T15:14:49.976Z,3.15
2022-08-05T15:17:47.339Z,3.55
2022-08-05T15:20:18.618Z,7.90
2022-08-05T15:22:54.104Z,2.90
2022-08-05T15:25:40.858Z,2.90
2022-08-05T15:28:13.367Z,3.40
2022-08-05T15:30:45.589Z,3.50
2022-08-05T15:34:04.704Z,5.00
2022-08-05T15:36:05.709Z,11.35
2022-08-05T15:38:41.258Z,3.42
2022-08-05T15:41:22.464Z,8.43
2022-08-05T15:43:54.752Z,3.05
2022-08-05T15:46:24.101Z,3.28
2022-08-05T15:48:55.642Z,3.20
2022-08-05T15:52:04.416Z,3.35
2022-08-05T15:54:18.370Z,3.65
2022-08-05T15:56:45.476Z,3.22
2022-08-05T15:59:22.344Z,3.40
2022-08-05T16:01:52.832Z,3.45
2022-08-05T16:04:25.499Z,2.85
2022-08-05T16:09:25.124Z,2.95
2022-08-05T16:11:54.794Z,3.80
2022-08-05T16:14:24.156Z,3.80
2022-08-05T16:16:56.509Z,3.10
2022-08-05T16:20:05.296Z,3.30
2022-08-05T16:22:15.489Z,3.10
2022-08-05T16:24:51.183Z,3.35
2022-08-05T16:27:32.022Z,3.22
2022-08-05T16:30:26.513Z,3.53
2022-08-05T16:32:55.798Z,3.20
2022-08-05T16:35:28.365Z,3.63
2022-08-05T16:38:15.603Z,3.90
2022-08-05T16:40:51.894Z,3.28
2022-08-05T16:43:27.770Z,3.60
2022-08-05T16:46:06.636Z,5.43
2022-08-05T16:48:40.344Z,3.80
2022-08-05T16:51:09.492Z,3.50
2022-08-05T16:54:06.299Z,3.50
2022-08-05T16:56:29.319Z,4.10
2022-08-05T16:58:57.754Z,3.28
2022-08-05T17:01:24.965Z,3.50
2022-08-05T17:03:52.270Z,3.58
2022-08-05T17:06:20.477Z,3.50
2022-08-05T17:08:54.372Z,3.72
2022-08-05T17:11:25.303Z,3.70
2022-08-05T17:14:00.629Z,3.75
2022-08-05T17:16:36.516Z,4.43
2022-08-05T17:19:09.294Z,4.65
2022-08-05T17:24:28.255Z,4.80
2022-08-05T17:26:59.114Z,4.82
2022-08-05T17:29:33.301Z,4.53
2022-08-05T17:32:16.835Z,8.55
2022-08-05T17:34:48.086Z,7.90
2022-08-05T17:37:39.801Z,4.63
2022-08-05T17:40:10.313Z,4.15
2022-08-05T17:42:42.912Z,12.43
2022-08-05T17:45:21.143Z,8.50
2022-08-05T17:47:55.711Z,9.52
2022-08-05T17:50:30.277Z,7.95
2022-08-05T17:53:05.381Z,16.35
2022-08-05T17:55:38.082Z,8.88
2022-08-05T17:58:13.506Z,6.80
2022-08-05T18:00:50.542Z,7.70
2022-08-05T18:06:11.331Z,7.10
2022-08-05T18:11:24.759Z,6.70
2022-08-05T18:13:59.852Z,6.55
2022-08-05T18:16:27.258Z,17.90
2022-08-05T18:18:54.343Z,6.78
2022-08-05T18:21:26.455Z,6.40
2022-08-05T18:24:12.678Z,7.40
2022-08-05T18:26:41.719Z,6.38
2022-08-05T18:29:10.892Z,6.78
2022-08-05T18:31:38.396Z,6.45
2022-08-05T18:34:12.173Z,6.47
2022-08-05T18:36:41.249Z,6.45
2022-08-05T18:39:42.021Z,6.68
2022-08-05T18:42:07.617Z,6.57
2022-08-05T18:44:48.960Z,6.97
2022-08-05T18:47:16.545Z,6.32
2022-08-05T18:50:02.052Z,6.30
2022-08-05T18:52:33.664Z,6.60
2022-08-05T18:55:10.441Z,8.60
2022-08-05T18:57:49.964Z,7.55
2022-08-05T19:00:21.042Z,7.68
2022-08-05T19:02:55.486Z,7.53
2022-08-05T19:06:13.370Z,8.18
2022-08-05T19:08:13.523Z,8.10
2022-08-05T19:10:42.398Z,7.88
2022-08-05T19:13:12.245Z,8.45
2022-08-05T19:15:58.764Z,8.43
2022-08-05T19:18:28.655Z,8.45
2022-08-05T19:20:56.226Z,8.50
2022-08-05T19:24:06.718Z,9.07
2022-08-05T19:26:11.115Z,8.65
2022-08-05T19:28:42.249Z,8.32
2022-08-05T19:31:13.506Z,9.15
2022-08-05T19:33:48.493Z,8.85
2022-08-05T19:36:29.374Z,9.35
2022-08-05T19:39:01.315Z,9.40
2022-08-05T19:42:05.446Z,9.50
2022-08-05T19:44:19.046Z,11.80
2022-08-05T19:46:47.062Z,12.07
2022-08-05T20:06:46.460Z,12.68
2022-08-05T20:09:14.488Z,11.13
2022-08-05T20:11:48.123Z,12.25
2022-08-05T20:14:26.753Z,11.80
2022-08-05T20:16:55.374Z,11.68
2022-08-05T20:19:23.695Z,12.02
2022-08-05T20:22:02.938Z,11.20
2022-08-05T20:24:32.935Z,12.50
2022-08-05T20:27:02.254Z,12.18
2022-08-05T20:29:29.403Z,11.23
2022-08-05T20:31:58.358Z,10.73
2022-08-05T20:34:27.029Z,11.05
2022-08-05T20:36:54.205Z,10.95
2022-08-05T20:39:22.830Z,10.98
2022-08-05T20:41:50.005Z,10.68
2022-08-05T20:44:30.194Z,10.45
2022-08-05T20:47:06.708Z,10.55
2022-08-05T20:49:39.695Z,10.35
2022-08-05T21:03:37.969Z,9.88
2022-08-05T21:06:28.228Z,9.18
2022-08-05T21:08:55.734Z,8.85
2022-08-05T21:12:06.525Z,9.07
2022-08-05T21:14:10.185Z,8.60
2022-08-05T21:16:39.901Z,8.23
2022-08-05T21:19:06.892Z,8.32
2022-08-05T21:21:39.585Z,9.00
2022-08-05T21:24:13.525Z,8.63
2022-08-05T21:26:50.250Z,8.70
2022-08-05T21:29:26.694Z,8.95
2022-08-05T21:31:59.146Z,8.60
2022-08-05T21:34:26.178Z,8.95
2022-08-05T21:36:55.410Z,8.55
2022-08-05T21:39:26.979Z,8.57
2022-08-05T21:42:01.492Z,8.10
2022-08-05T21:44:31.060Z,8.48
2022-08-05T21:46:59.681Z,8.43
2022-08-05T21:49:58.472Z,9.68
2022-08-05T21:52:21.999Z,8.80
2022-08-05T21:54:56.362Z,9.15
2022-08-05T21:57:32.621Z,8.85
2022-08-05T22:00:05.535Z,8.80
2022-08-05T22:02:33.991Z,8.65
2022-08-05T22:05:01.256Z,8.95
2022-08-05T22:07:40.101Z,8.52
2022-08-05T22:10:17.525Z,8.50
2022-08-05T22:12:54.226Z,8.48
2022-08-05T22:16:02.431Z,8.98
2022-08-05T22:18:08.604Z,9.10
2022-08-05T22:20:39.119Z,8.80
2022-08-05T22:24:00.715Z,9.80
2022-08-05T22:26:31.547Z,9.80
2022-08-05T22:29:00.645Z,9.52
2022-08-05T22:31:30.271Z,10.20
2022-08-05T22:34:01.363Z,10.32
2022-08-05T22:36:29.277Z,9.68
2022-08-05T22:38:56.917Z,10.18
2022-08-05T22:42:04.178Z,10.18
2022-08-05T22:44:12.008Z,9.95
2022-08-05T22:46:40.870Z,10.27
2022-08-05T22:50:18.361Z,9.98
2022-08-05T22:52:05.050Z,9.45
2022-08-05T22:54:34.001Z,10.93
2022-08-05T22:57:01.056Z,9.48
2022-08-05T22:59:43.966Z,10.45
2022-08-05T23:02:16.468Z,10.48
2022-08-05T23:05:02.017Z,10.52
2022-08-05T23:07:44.807Z,10.95
2022-08-05T23:10:20.311Z,10.70
2022-08-05T23:12:54.701Z,11.13
2022-08-05T23:15:29.444Z,11.38
2022-08-05T23:18:03.361Z,11.10
2022-08-05T23:20:37.280Z,11.27
2022-08-05T23:23:08.405Z,11.57
2022-08-05T23:25:51.046Z,11.32
2022-08-05T23:28:21.153Z,11.20
2022-08-05T23:30:53.663Z,10.10
2022-08-05T23:33:26.479Z,9.85
2022-08-05T23:36:10.277Z,9.93
2022-08-05T23:38:39.217Z,9.63
2022-08-05T23:41:06.407Z,8.45
2022-08-05T23:44:06.492Z,9.30
2022-08-05T23:46:22.152Z,9.35
2022-08-05T23:49:00.721Z,8.50
2022-08-05T23:51:53.889Z,8.30
2022-08-05T23:54:25.607Z,8.77
2022-08-05T23:57:03.791Z,9.07
